Terminal Aerodrome Forecast
Issued by NWS

Home | Current Version | Previous Version | Text Only | Print | Product List | Glossary On
Versions: 1 2 3 4 5 6 7 8 9 10 11 12 13 14 15
000
FTUS44 KOUN 221720
TAFPNC
TAF
KPNC 221720Z 2218/2318 35013G21KT P6SM BKN025 OVC040
     FM222200 36010KT P6SM SCT025 OVC040
     FM230400 01005KT P6SM BKN015
     FM231400 02008KT P6SM SCT020=

USA.gov is the U.S. government's official web portal to all federal, state and local government web resources and services.